Megalochari Vii — SY6064 — position and weather

sailwx.info

Track history (hours):
 
Tides and Currents Weather Stations Pressure Air Temp Water Temp Dewpoint Dewpoint Depression Visibility Wind Speed Wind Dir Waves Ship Positions

Megalochari Vii

Last reported at 2015-Mar-28 13:24 UTC. Time now 2015-Mar-29 09:22 UTC.
Position N 37°58' E 023°37'.

Length 27 m; draft 4.8 m.

Type: Tug. MMSI: 240391000.

Date/timePositionNaut miles runAvg speedWind from/ knotsBaromVisibWave heightAir tempDewpointWater temp
2015-Mar-28 13:24N 37°58' E 023°37'4 4.6
2015-Mar-28 12:33N 37°54' E 023°39'1010.5
2015-Mar-28 11:34N 37°45' E 023°46'1310.3
2015-Mar-28 10:20N 37°38' E 023°58'4010.2
2015-Mar-28 06:26N 37°32' E 024°48'1110.1
2015-Mar-28 05:18N 37°31' E 025°02'810.4
2015-Mar-28 04:34N 37°29' E 025°12'6 4.9
2015-Mar-28 03:15N 37°28' E 025°20'0 0.0
2015-Mar-28 02:26N 37°28' E 025°20'0 0.0
2015-Mar-28 01:24N 37°28' E 025°20'0 0.0
2015-Mar-28 00:31N 37°28' E 025°20'0 0.0
2015-Mar-27 21:24N 37°28' E 025°20'0 0.2
2015-Mar-27 20:33N 37°28' E 025°19'0 0.1
2015-Mar-27 19:23N 37°28' E 025°20'0 0.0
2015-Mar-27 18:30N 37°28' E 025°20'0 0.0
2015-Mar-27 17:32N 37°28' E 025°20'0 0.0
2015-Mar-27 16:33N 37°28' E 025°20'0 0.1
2015-Mar-27 15:30N 37°28' E 025°20'0 0.1
2015-Mar-27 14:33N 37°28' E 025°20'0 0.0
2015-Mar-27 13:33N 37°28' E 025°20'0 0.0
2015-Mar-27 12:33N 37°28' E 025°20'7 7.4
2015-Mar-27 11:33N 37°28' E 025°10'18 9.2
2015-Mar-27 09:33N 37°29' E 024°47'47 9.4
2015-Mar-27 04:31N 37°42' E 023°50'10 9.8
2015-Mar-27 03:33N 37°49' E 023°42'9 9.3
2015-Mar-27 02:33N 37°57' E 023°36'0 0.3
2015-Mar-27 01:33N 37°58' E 023°37'0 0.0
2015-Mar-27 00:24N 37°58' E 023°37'0 0.0
2015-Mar-26 23:28N 37°58' E 023°37'0 0.0
2015-Mar-26 22:30N 37°58' E 023°37'0 0.0
2015-Mar-26 21:31N 37°58' E 023°37'1 1.0
2015-Mar-26 20:33N 37°57' E 023°36'1 1.0
2015-Mar-26 19:32N 37°58' E 023°37'0 0.0
2015-Mar-26 18:32N 37°58' E 023°37'0 0.0
2015-Mar-26 17:33N 37°58' E 023°37'0 0.0
2015-Mar-26 16:33N 37°58' E 023°37'0 0.0
2015-Mar-26 15:32N 37°58' E 023°37'0 0.0
2015-Mar-26 14:32N 37°58' E 023°37'1 1.5
2015-Mar-26 13:33N 37°56' E 023°36'1 0.9
2015-Mar-26 12:31N 37°57' E 023°36'1 0.9
2015-Mar-26 11:32N 37°57' E 023°37'0 0.0
2015-Mar-26 10:32N 37°57' E 023°37'0 0.0
2015-Mar-25 10:28N 37°58' E 023°37'2 2.5
2015-Mar-25 09:32N 37°58' E 023°34'0 0.0
2015-Mar-25 08:33N 37°58' E 023°34'5 4.1
2015-Mar-25 07:19N 38°02' E 023°31'3 2.9
2015-Mar-25 06:13N 37°59' E 023°33'3 4.5
2015-Mar-25 05:32N 37°57' E 023°35'1 1.0
2015-Mar-25 04:33N 37°57' E 023°37'0 0.2
2015-Mar-25 03:29N 37°58' E 023°37'1 0.1
2015-Mar-24 17:33N 37°57' E 023°36'0 0.0
2015-Mar-24 16:33N 37°57' E 023°36'0 0.0
2015-Mar-24 15:33N 37°57' E 023°36'0 0.0
2015-Mar-24 14:33N 37°57' E 023°36'0 0.0
2015-Mar-24 13:33N 37°57' E 023°36'0 0.0
2015-Mar-24 12:33N 37°57' E 023°36'0 0.0
2015-Mar-24 11:33N 37°57' E 023°36'0 0.0
2015-Mar-24 10:33N 37°57' E 023°36'0 0.0
2015-Mar-24 09:33N 37°57' E 023°36'0 0.0
2015-Mar-24 08:33N 37°57' E 023°36'0 0.0
2015-Mar-24 07:33N 37°57' E 023°36'0 0.0
2015-Mar-24 06:33N 37°57' E 023°36'0 0.0
2015-Mar-24 05:33N 37°57' E 023°36'0 0.0
2015-Mar-24 04:33N 37°57' E 023°36'0 0.0
2015-Mar-24 03:33N 37°57' E 023°36'0 0.0
2015-Mar-24 02:33N 37°57' E 023°36'0 0.0
2015-Mar-24 01:33N 37°57' E 023°36'0 0.0
2015-Mar-24 00:33N 37°57' E 023°36'0 0.0
2015-Mar-23 23:33N 37°57' E 023°36'0 0.0
2015-Mar-23 22:33N 37°57' E 023°36'0 0.0
2015-Mar-23 21:33N 37°57' E 023°36'0 0.0
2015-Mar-23 20:33N 37°57' E 023°36'0 0.0
2015-Mar-23 19:33N 37°57' E 023°36'0 0.0
2015-Mar-23 18:33N 37°57' E 023°36'0 0.0
2015-Mar-23 17:33N 37°57' E 023°36'0 0.0
2015-Mar-23 16:33N 37°57' E 023°36'0 0.0
2015-Mar-23 15:33N 37°57' E 023°36'0 0.0
2015-Mar-23 14:32N 37°57' E 023°36'0 0.0
2015-Mar-23 13:33N 37°57' E 023°36'0 0.0
2015-Mar-23 12:33N 37°57' E 023°36'0 0.0
2015-Mar-22 18:17N 37°57' E 023°37'7 9.6
2015-Mar-22 17:33N 37°51' E 023°40'1110.8
2015-Mar-22 16:33N 37°43' E 023°49'6 0.3
2015-Mar-21 22:19N 37°39' E 023°55'810.1
2015-Mar-21 21:34N 37°43' E 023°48'1010.0
2015-Mar-21 20:33N 37°51' E 023°40'7 6.0
2015-Mar-21 19:27N 37°57' E 023°37'0 0.1
2015-Mar-21 17:29N 37°58' E 023°37'1 1.4
2015-Mar-21 16:33N 37°57' E 023°35'5 5.3
2015-Mar-21 15:33N 38°02' E 023°33'0 0.0
2015-Mar-21 14:28N 38°02' E 023°33'1 0.5
2015-Mar-21 12:30N 38°01' E 023°33'2 2.3
2015-Mar-21 11:31N 38°02' E 023°30'0 0.1
2015-Mar-21 09:33N 38°02' E 023°30'5 3.7
2015-Mar-21 08:09N 37°57' E 023°33'0 0.7
2015-Mar-21 07:33N 37°57' E 023°33'2 2.0
2015-Mar-21 06:33N 37°57' E 023°36'0 0.4
2015-Mar-21 05:33N 37°57' E 023°36'1 0.8
2015-Mar-21 04:12N 37°58' E 023°37'0 0.0
2015-Mar-21 03:30N 37°58' E 023°37'0 0.0
2015-Mar-20 12:33N 37°58' E 023°37'7 3.4
2015-Mar-20 10:32N 38°02' E 023°30'4 1.7
2015-Mar-20 08:19N 38°02' E 023°35'3 2.8
2015-Mar-20 07:15N 38°01' E 023°31'5 5.4
2015-Mar-20 06:21N 37°57' E 023°34'2 2.8
2015-Mar-20 05:32N 37°55' E 023°36'3 0.2
2015-Mar-19 13:06N 37°58' E 023°37'1 1.3
2015-Mar-19 12:33N 37°57' E 023°36'1 1.4
2015-Mar-19 11:33N 37°56' E 023°38'1 1.4
2015-Mar-19 10:33N 37°58' E 023°37'1 0.3
2015-Mar-19 07:33N 37°57' E 023°36'2 1.7
2015-Mar-19 06:30N 37°57' E 023°38'3 2.7
2015-Mar-19 05:33N 37°57' E 023°35'1 0.9
2015-Mar-19 04:30N 37°57' E 023°36'0 0.5
2015-Mar-19 03:32N 37°58' E 023°37'  
Track history (hours):
 
Tides and Currents Weather Stations Pressure Air Temp Water Temp Dewpoint Dewpoint Depression Visibility Wind Speed Wind Dir Waves Ship Positions

Megalochari Vii

Last reported at 2015-Mar-28 13:24 UTC. Time now 2015-Mar-29 09:22 UTC.
Position N 37°58' E 023°37'.

Length 27 m; draft 4.8 m.

Type: Tug. MMSI: 240391000.

Date/timePositionNaut miles runAvg speedWind from/ knotsBaromVisibWave heightAir tempDewpointWater temp
2015-Mar-28 13:24N 37°58' E 023°37'4 4.6
2015-Mar-28 12:33N 37°54' E 023°39'1010.5
2015-Mar-28 11:34N 37°45' E 023°46'1310.3
2015-Mar-28 10:20N 37°38' E 023°58'4010.2
2015-Mar-28 06:26N 37°32' E 024°48'1110.1
2015-Mar-28 05:18N 37°31' E 025°02'810.4
2015-Mar-28 04:34N 37°29' E 025°12'6 4.9
2015-Mar-28 03:15N 37°28' E 025°20'0 0.0
2015-Mar-28 02:26N 37°28' E 025°20'0 0.0
2015-Mar-28 01:24N 37°28' E 025°20'0 0.0
2015-Mar-28 00:31N 37°28' E 025°20'0 0.0
2015-Mar-27 21:24N 37°28' E 025°20'0 0.2
2015-Mar-27 20:33N 37°28' E 025°19'0 0.1
2015-Mar-27 19:23N 37°28' E 025°20'0 0.0
2015-Mar-27 18:30N 37°28' E 025°20'0 0.0
2015-Mar-27 17:32N 37°28' E 025°20'0 0.0
2015-Mar-27 16:33N 37°28' E 025°20'0 0.1
2015-Mar-27 15:30N 37°28' E 025°20'0 0.1
2015-Mar-27 14:33N 37°28' E 025°20'0 0.0
2015-Mar-27 13:33N 37°28' E 025°20'0 0.0
2015-Mar-27 12:33N 37°28' E 025°20'7 7.4
2015-Mar-27 11:33N 37°28' E 025°10'18 9.2
2015-Mar-27 09:33N 37°29' E 024°47'47 9.4
2015-Mar-27 04:31N 37°42' E 023°50'10 9.8
2015-Mar-27 03:33N 37°49' E 023°42'9 9.3
2015-Mar-27 02:33N 37°57' E 023°36'0 0.3
2015-Mar-27 01:33N 37°58' E 023°37'0 0.0
2015-Mar-27 00:24N 37°58' E 023°37'0 0.0
2015-Mar-26 23:28N 37°58' E 023°37'0 0.0
2015-Mar-26 22:30N 37°58' E 023°37'0 0.0
2015-Mar-26 21:31N 37°58' E 023°37'1 1.0
2015-Mar-26 20:33N 37°57' E 023°36'1 1.0
2015-Mar-26 19:32N 37°58' E 023°37'0 0.0
2015-Mar-26 18:32N 37°58' E 023°37'0 0.0
2015-Mar-26 17:33N 37°58' E 023°37'0 0.0
2015-Mar-26 16:33N 37°58' E 023°37'0 0.0
2015-Mar-26 15:32N 37°58' E 023°37'0 0.0
2015-Mar-26 14:32N 37°58' E 023°37'1 1.5
2015-Mar-26 13:33N 37°56' E 023°36'1 0.9
2015-Mar-26 12:31N 37°57' E 023°36'1 0.9
2015-Mar-26 11:32N 37°57' E 023°37'0 0.0
2015-Mar-26 10:32N 37°57' E 023°37'0 0.0
2015-Mar-25 10:28N 37°58' E 023°37'2 2.5
2015-Mar-25 09:32N 37°58' E 023°34'0 0.0
2015-Mar-25 08:33N 37°58' E 023°34'5 4.1
2015-Mar-25 07:19N 38°02' E 023°31'3 2.9
2015-Mar-25 06:13N 37°59' E 023°33'3 4.5
2015-Mar-25 05:32N 37°57' E 023°35'1 1.0
2015-Mar-25 04:33N 37°57' E 023°37'0 0.2
2015-Mar-25 03:29N 37°58' E 023°37'1 0.1
2015-Mar-24 17:33N 37°57' E 023°36'0 0.0
2015-Mar-24 16:33N 37°57' E 023°36'0 0.0
2015-Mar-24 15:33N 37°57' E 023°36'0 0.0
2015-Mar-24 14:33N 37°57' E 023°36'0 0.0
2015-Mar-24 13:33N 37°57' E 023°36'0 0.0
2015-Mar-24 12:33N 37°57' E 023°36'0 0.0
2015-Mar-24 11:33N 37°57' E 023°36'0 0.0
2015-Mar-24 10:33N 37°57' E 023°36'0 0.0
2015-Mar-24 09:33N 37°57' E 023°36'0 0.0
2015-Mar-24 08:33N 37°57' E 023°36'0 0.0
2015-Mar-24 07:33N 37°57' E 023°36'0 0.0
2015-Mar-24 06:33N 37°57' E 023°36'0 0.0
2015-Mar-24 05:33N 37°57' E 023°36'0 0.0
2015-Mar-24 04:33N 37°57' E 023°36'0 0.0
2015-Mar-24 03:33N 37°57' E 023°36'0 0.0
2015-Mar-24 02:33N 37°57' E 023°36'0 0.0
2015-Mar-24 01:33N 37°57' E 023°36'0 0.0
2015-Mar-24 00:33N 37°57' E 023°36'0 0.0
2015-Mar-23 23:33N 37°57' E 023°36'0 0.0
2015-Mar-23 22:33N 37°57' E 023°36'0 0.0
2015-Mar-23 21:33N 37°57' E 023°36'0 0.0
2015-Mar-23 20:33N 37°57' E 023°36'0 0.0
2015-Mar-23 19:33N 37°57' E 023°36'0 0.0
2015-Mar-23 18:33N 37°57' E 023°36'0 0.0
2015-Mar-23 17:33N 37°57' E 023°36'0 0.0
2015-Mar-23 16:33N 37°57' E 023°36'0 0.0
2015-Mar-23 15:33N 37°57' E 023°36'0 0.0
2015-Mar-23 14:32N 37°57' E 023°36'0 0.0
2015-Mar-23 13:33N 37°57' E 023°36'0 0.0
2015-Mar-23 12:33N 37°57' E 023°36'0 0.0
2015-Mar-22 18:17N 37°57' E 023°37'7 9.6
2015-Mar-22 17:33N 37°51' E 023°40'1110.8
2015-Mar-22 16:33N 37°43' E 023°49'6 0.3
2015-Mar-21 22:19N 37°39' E 023°55'810.1
2015-Mar-21 21:34N 37°43' E 023°48'1010.0
2015-Mar-21 20:33N 37°51' E 023°40'7 6.0
2015-Mar-21 19:27N 37°57' E 023°37'0 0.1
2015-Mar-21 17:29N 37°58' E 023°37'1 1.4
2015-Mar-21 16:33N 37°57' E 023°35'5 5.3
2015-Mar-21 15:33N 38°02' E 023°33'0 0.0
2015-Mar-21 14:28N 38°02' E 023°33'1 0.5
2015-Mar-21 12:30N 38°01' E 023°33'2 2.3
2015-Mar-21 11:31N 38°02' E 023°30'0 0.1
2015-Mar-21 09:33N 38°02' E 023°30'5 3.7
2015-Mar-21 08:09N 37°57' E 023°33'0 0.7
2015-Mar-21 07:33N 37°57' E 023°33'2 2.0
2015-Mar-21 06:33N 37°57' E 023°36'0 0.4
2015-Mar-21 05:33N 37°57' E 023°36'1 0.8
2015-Mar-21 04:12N 37°58' E 023°37'0 0.0
2015-Mar-21 03:30N 37°58' E 023°37'0 0.0
2015-Mar-20 12:33N 37°58' E 023°37'7 3.4
2015-Mar-20 10:32N 38°02' E 023°30'4 1.7
2015-Mar-20 08:19N 38°02' E 023°35'3 2.8
2015-Mar-20 07:15N 38°01' E 023°31'5 5.4
2015-Mar-20 06:21N 37°57' E 023°34'2 2.8
2015-Mar-20 05:32N 37°55' E 023°36'3 0.2
2015-Mar-19 13:06N 37°58' E 023°37'1 1.3
2015-Mar-19 12:33N 37°57' E 023°36'1 1.4
2015-Mar-19 11:33N 37°56' E 023°38'1 1.4
2015-Mar-19 10:33N 37°58' E 023°37'1 0.3
2015-Mar-19 07:33N 37°57' E 023°36'2 1.7
2015-Mar-19 06:30N 37°57' E 023°38'3 2.7
2015-Mar-19 05:33N 37°57' E 023°35'1 0.9
2015-Mar-19 04:30N 37°57' E 023°36'0 0.5
2015-Mar-19 03:32N 37°58' E 023°37'  

Dump ship's entire track history